sensor_id;sensor_type;location;lat;lon;timestamp;P1;durP1;ratioP1;P2;durP2;ratioP2
21741;SDS011;11033;47.490;11.116;2023-11-22T00:00:21;1.75;;;1.63;;
21741;SDS011;11033;47.490;11.116;2023-11-22T00:02:46;1.83;;;1.35;;
21741;SDS011;11033;47.490;11.116;2023-11-22T00:05:12;1.00;;;1.00;;
21741;SDS011;11033;47.490;11.116;2023-11-22T00:07:38;1.40;;;1.30;;
21741;SDS011;11033;47.490;11.116;2023-11-22T00:10:03;1.35;;;1.25;;
21741;SDS011;11033;47.490;11.116;2023-11-22T00:12:29;0.90;;;0.90;;
21741;SDS011;11033;47.490;11.116;2023-11-22T00:15:01;1.48;;;1.38;;
21741;SDS011;11033;47.490;11.116;2023-11-22T00:17:27;1.40;;;1.30;;
21741;SDS011;11033;47.490;11.116;2023-11-22T00:19:52;1.42;;;1.27;;
21741;SDS011;11033;47.490;11.116;2023-11-22T00:22:17;0.82;;;0.80;;
21741;SDS011;11033;47.490;11.116;2023-11-22T00:24:44;1.05;;;0.80;;
21741;SDS011;11033;47.490;11.116;2023-11-22T00:27:15;1.00;;;0.90;;
21741;SDS011;11033;47.490;11.116;2023-11-22T00:29:40;0.63;;;0.63;;
21741;SDS011;11033;47.490;11.116;2023-11-22T00:32:05;0.70;;;0.70;;
21741;SDS011;11033;47.490;11.116;2023-11-22T00:34:32;0.70;;;0.70;;
21741;SDS011;11033;47.490;11.116;2023-11-22T00:36:57;0.73;;;0.73;;
21741;SDS011;11033;47.490;11.116;2023-11-22T00:39:23;0.70;;;0.70;;
21741;SDS011;11033;47.490;11.116;2023-11-22T00:41:48;0.60;;;0.60;;
21741;SDS011;11033;47.490;11.116;2023-11-22T00:44:13;0.80;;;0.80;;
21741;SDS011;11033;47.490;11.116;2023-11-22T00:46:39;0.95;;;0.90;;
21741;SDS011;11033;47.490;11.116;2023-11-22T00:49:04;1.20;;;1.10;;
21741;SDS011;11033;47.490;11.116;2023-11-22T00:51:31;0.93;;;0.93;;
21741;SDS011;11033;47.490;11.116;2023-11-22T00:53:57;0.73;;;0.73;;
21741;SDS011;11033;47.490;11.116;2023-11-22T00:56:23;0.82;;;0.82;;
21741;SDS011;11033;47.490;11.116;2023-11-22T00:58:48;0.70;;;0.70;;
21741;SDS011;11033;47.490;11.116;2023-11-22T01:01:14;0.80;;;0.80;;
21741;SDS011;11033;47.490;11.116;2023-11-22T01:03:41;1.00;;;0.98;;
21741;SDS011;11033;47.490;11.116;2023-11-22T01:06:06;1.05;;;0.90;;
21741;SDS011;11033;47.490;11.116;2023-11-22T01:08:32;1.00;;;1.00;;
21741;SDS011;11033;47.490;11.116;2023-11-22T01:10:57;0.93;;;0.90;;
21741;SDS011;11033;47.490;11.116;2023-11-22T01:13:22;1.00;;;1.00;;
21741;SDS011;11033;47.490;11.116;2023-11-22T01:15:48;1.20;;;0.77;;
21741;SDS011;11033;47.490;11.116;2023-11-22T01:18:13;1.10;;;0.98;;
21741;SDS011;11033;47.490;11.116;2023-11-22T01:20:38;0.80;;;0.80;;
21741;SDS011;11033;47.490;11.116;2023-11-22T01:23:04;0.85;;;0.85;;
21741;SDS011;11033;47.490;11.116;2023-11-22T01:25:29;0.80;;;0.80;;
21741;SDS011;11033;47.490;11.116;2023-11-22T01:27:54;1.00;;;1.00;;
21741;SDS011;11033;47.490;11.116;2023-11-22T01:30:19;0.80;;;0.80;;
21741;SDS011;11033;47.490;11.116;2023-11-22T01:32:45;0.93;;;0.90;;
21741;SDS011;11033;47.490;11.116;2023-11-22T01:35:10;0.90;;;0.90;;
21741;SDS011;11033;47.490;11.116;2023-11-22T01:37:35;1.30;;;1.20;;
21741;SDS011;11033;47.490;11.116;2023-11-22T01:40:01;1.13;;;1.02;;
21741;SDS011;11033;47.490;11.116;2023-11-22T01:42:28;1.50;;;1.40;;
21741;SDS011;11033;47.490;11.116;2023-11-22T01:44:53;1.85;;;1.75;;
21741;SDS011;11033;47.490;11.116;2023-11-22T01:47:19;2.33;;;2.15;;
21741;SDS011;11033;47.490;11.116;2023-11-22T01:49:45;1.90;;;1.75;;
21741;SDS011;11033;47.490;11.116;2023-11-22T01:52:11;2.88;;;1.60;;
21741;SDS011;11033;47.490;11.116;2023-11-22T01:54:37;1.67;;;1.58;;
21741;SDS011;11033;47.490;11.116;2023-11-22T01:57:03;1.90;;;1.80;;
21741;SDS011;11033;47.490;11.116;2023-11-22T01:59:32;1.88;;;1.77;;
21741;SDS011;11033;47.490;11.116;2023-11-22T02:01:58;1.80;;;1.70;;
21741;SDS011;11033;47.490;11.116;2023-11-22T02:04:23;2.50;;;1.77;;
21741;SDS011;11033;47.490;11.116;2023-11-22T02:06:49;2.95;;;2.30;;
21741;SDS011;11033;47.490;11.116;2023-11-22T02:09:16;2.17;;;1.60;;
21741;SDS011;11033;47.490;11.116;2023-11-22T02:11:42;2.00;;;1.90;;
21741;SDS011;11033;47.490;11.116;2023-11-22T02:14:10;4.28;;;2.22;;
21741;SDS011;11033;47.490;11.116;2023-11-22T02:16:36;1.73;;;1.63;;
21741;SDS011;11033;47.490;11.116;2023-11-22T02:19:02;1.70;;;1.60;;
21741;SDS011;11033;47.490;11.116;2023-11-22T02:21:30;1.63;;;1.52;;
21741;SDS011;11033;47.490;11.116;2023-11-22T02:23:55;1.65;;;1.48;;
21741;SDS011;11033;47.490;11.116;2023-11-22T02:26:21;1.40;;;1.30;;
21741;SDS011;11033;47.490;11.116;2023-11-22T02:28:46;1.98;;;1.38;;
21741;SDS011;11033;47.490;11.116;2023-11-22T02:31:13;2.40;;;2.17;;
21741;SDS011;11033;47.490;11.116;2023-11-22T02:33:38;3.20;;;2.58;;
21741;SDS011;11033;47.490;11.116;2023-11-22T02:36:04;2.75;;;2.20;;
21741;SDS011;11033;47.490;11.116;2023-11-22T02:38:31;2.10;;;1.90;;
21741;SDS011;11033;47.490;11.116;2023-11-22T02:40:56;1.40;;;1.30;;
21741;SDS011;11033;47.490;11.116;2023-11-22T02:43:21;1.35;;;1.35;;
21741;SDS011;11033;47.490;11.116;2023-11-22T02:45:48;1.42;;;1.33;;
21741;SDS011;11033;47.490;11.116;2023-11-22T02:48:13;1.63;;;1.45;;
21741;SDS011;11033;47.490;11.116;2023-11-22T02:50:39;1.58;;;1.35;;
21741;SDS011;11033;47.490;11.116;2023-11-22T02:53:04;2.38;;;1.30;;
21741;SDS011;11033;47.490;11.116;2023-11-22T02:55:30;1.10;;;1.10;;
21741;SDS011;11033;47.490;11.116;2023-11-22T02:57:55;2.35;;;1.30;;
21741;SDS011;11033;47.490;11.116;2023-11-22T03:00:21;1.20;;;1.10;;
21741;SDS011;11033;47.490;11.116;2023-11-22T03:02:47;2.78;;;1.60;;
21741;SDS011;11033;47.490;11.116;2023-11-22T03:05:13;1.80;;;1.55;;
21741;SDS011;11033;47.490;11.116;2023-11-22T03:07:39;2.95;;;1.60;;
21741;SDS011;11033;47.490;11.116;2023-11-22T03:10:06;1.00;;;0.90;;
21741;SDS011;11033;47.490;11.116;2023-11-22T03:12:32;1.00;;;1.00;;
21741;SDS011;11033;47.490;11.116;2023-11-22T03:15:03;1.35;;;1.20;;
21741;SDS011;11033;47.490;11.116;2023-11-22T03:17:28;1.55;;;1.20;;
21741;SDS011;11033;47.490;11.116;2023-11-22T03:19:54;1.00;;;1.00;;
21741;SDS011;11033;47.490;11.116;2023-11-22T03:22:22;1.67;;;1.13;;
21741;SDS011;11033;47.490;11.116;2023-11-22T03:24:51;1.00;;;1.00;;
21741;SDS011;11033;47.490;11.116;2023-11-22T03:27:17;1.67;;;0.80;;
21741;SDS011;11033;47.490;11.116;2023-11-22T03:29:43;1.95;;;0.90;;
21741;SDS011;11033;47.490;11.116;2023-11-22T03:32:09;2.88;;;1.00;;
21741;SDS011;11033;47.490;11.116;2023-11-22T03:34:34;1.20;;;1.20;;
21741;SDS011;11033;47.490;11.116;2023-11-22T03:36:59;1.77;;;0.80;;
21741;SDS011;11033;47.490;11.116;2023-11-22T03:39:25;1.58;;;1.48;;
21741;SDS011;11033;47.490;11.116;2023-11-22T03:41:50;2.78;;;1.20;;
21741;SDS011;11033;47.490;11.116;2023-11-22T03:44:15;2.20;;;1.50;;
21741;SDS011;11033;47.490;11.116;2023-11-22T03:46:41;2.00;;;1.80;;
21741;SDS011;11033;47.490;11.116;2023-11-22T03:49:06;1.00;;;1.00;;
21741;SDS011;11033;47.490;11.116;2023-11-22T03:51:32;1.58;;;1.00;;
21741;SDS011;11033;47.490;11.116;2023-11-22T03:53:58;1.35;;;1.25;;
21741;SDS011;11033;47.490;11.116;2023-11-22T03:56:23;1.38;;;1.05;;
21741;SDS011;11033;47.490;11.116;2023-11-22T03:58:49;1.27;;;1.17;;
21741;SDS011;11033;47.490;11.116;2023-11-22T04:01:14;1.10;;;1.02;;
21741;SDS011;11033;47.490;11.116;2023-11-22T04:03:41;2.15;;;1.15;;
21741;SDS011;11033;47.490;11.116;2023-11-22T04:06:06;1.75;;;1.02;;
21741;SDS011;11033;47.490;11.116;2023-11-22T04:08:32;1.10;;;1.10;;
21741;SDS011;11033;47.490;11.116;2023-11-22T04:10:57;1.30;;;1.20;;
21741;SDS011;11033;47.490;11.116;2023-11-22T04:13:22;1.20;;;1.10;;
21741;SDS011;11033;47.490;11.116;2023-11-22T04:15:49;3.53;;;1.10;;
21741;SDS011;11033;47.490;11.116;2023-11-22T04:18:15;1.60;;;1.10;;
21741;SDS011;11033;47.490;11.116;2023-11-22T04:20:40;1.00;;;1.00;;
21741;SDS011;11033;47.490;11.116;2023-11-22T04:23:06;2.88;;;1.30;;
21741;SDS011;11033;47.490;11.116;2023-11-22T04:25:31;1.10;;;1.10;;
21741;SDS011;11033;47.490;11.116;2023-11-22T04:27:59;0.93;;;0.93;;
21741;SDS011;11033;47.490;11.116;2023-11-22T04:30:24;1.70;;;1.60;;
21741;SDS011;11033;47.490;11.116;2023-11-22T04:32:50;2.83;;;1.48;;
21741;SDS011;11033;47.490;11.116;2023-11-22T04:35:15;1.23;;;1.13;;
21741;SDS011;11033;47.490;11.116;2023-11-22T04:37:40;1.13;;;1.13;;
21741;SDS011;11033;47.490;11.116;2023-11-22T04:40:06;2.25;;;1.50;;
21741;SDS011;11033;47.490;11.116;2023-11-22T04:42:36;1.83;;;1.35;;
21741;SDS011;11033;47.490;11.116;2023-11-22T04:45:02;1.20;;;1.02;;
21741;SDS011;11033;47.490;11.116;2023-11-22T04:47:28;1.38;;;1.10;;
21741;SDS011;11033;47.490;11.116;2023-11-22T04:49:53;1.10;;;1.10;;
21741;SDS011;11033;47.490;11.116;2023-11-22T04:52:19;1.45;;;1.35;;
21741;SDS011;11033;47.490;11.116;2023-11-22T04:54:44;1.50;;;1.40;;
21741;SDS011;11033;47.490;11.116;2023-11-22T04:57:09;1.23;;;1.13;;
21741;SDS011;11033;47.490;11.116;2023-11-22T04:59:35;1.17;;;1.13;;
21741;SDS011;11033;47.490;11.116;2023-11-22T05:02:00;1.30;;;1.20;;
21741;SDS011;11033;47.490;11.116;2023-11-22T05:04:25;1.83;;;1.50;;
21741;SDS011;11033;47.490;11.116;2023-11-22T05:06:51;2.35;;;1.70;;
21741;SDS011;11033;47.490;11.116;2023-11-22T05:09:17;2.28;;;1.80;;
21741;SDS011;11033;47.490;11.116;2023-11-22T05:11:43;2.53;;;2.00;;
21741;SDS011;11033;47.490;11.116;2023-11-22T05:14:09;3.25;;;2.45;;
21741;SDS011;11033;47.490;11.116;2023-11-22T05:16:35;1.98;;;1.80;;
21741;SDS011;11033;47.490;11.116;2023-11-22T05:19:00;4.15;;;2.50;;
21741;SDS011;11033;47.490;11.116;2023-11-22T05:21:25;2.45;;;2.20;;
21741;SDS011;11033;47.490;11.116;2023-11-22T05:23:51;1.80;;;1.70;;
21741;SDS011;11033;47.490;11.116;2023-11-22T05:26:18;1.95;;;1.85;;
21741;SDS011;11033;47.490;11.116;2023-11-22T05:28:43;2.00;;;1.90;;
21741;SDS011;11033;47.490;11.116;2023-11-22T05:31:08;2.80;;;2.50;;
21741;SDS011;11033;47.490;11.116;2023-11-22T05:33:34;3.30;;;3.00;;
21741;SDS011;11033;47.490;11.116;2023-11-22T05:35:59;3.75;;;3.38;;
21741;SDS011;11033;47.490;11.116;2023-11-22T05:38:24;5.13;;;3.70;;
21741;SDS011;11033;47.490;11.116;2023-11-22T05:40:51;4.53;;;3.97;;
21741;SDS011;11033;47.490;11.116;2023-11-22T05:43:16;5.10;;;3.50;;
21741;SDS011;11033;47.490;11.116;2023-11-22T05:45:42;7.78;;;4.95;;
21741;SDS011;11033;47.490;11.116;2023-11-22T05:48:08;8.43;;;5.97;;
21741;SDS011;11033;47.490;11.116;2023-11-22T05:50:33;3.80;;;3.50;;
21741;SDS011;11033;47.490;11.116;2023-11-22T05:52:58;4.13;;;3.50;;
21741;SDS011;11033;47.490;11.116;2023-11-22T05:55:25;4.25;;;3.85;;
21741;SDS011;11033;47.490;11.116;2023-11-22T05:57:50;3.75;;;3.45;;
21741;SDS011;11033;47.490;11.116;2023-11-22T06:00:15;5.22;;;4.50;;
21741;SDS011;11033;47.490;11.116;2023-11-22T06:02:41;5.53;;;5.03;;
21741;SDS011;11033;47.490;11.116;2023-11-22T06:05:06;8.57;;;7.68;;
21741;SDS011;11033;47.490;11.116;2023-11-22T06:07:32;8.93;;;8.02;;
21741;SDS011;11033;47.490;11.116;2023-11-22T06:09:57;7.47;;;6.78;;
21741;SDS011;11033;47.490;11.116;2023-11-22T06:12:23;12.57;;;7.78;;
21741;SDS011;11033;47.490;11.116;2023-11-22T06:14:48;9.20;;;7.53;;
21741;SDS011;11033;47.490;11.116;2023-11-22T06:17:14;6.93;;;6.25;;
21741;SDS011;11033;47.490;11.116;2023-11-22T06:19:39;7.00;;;6.13;;
21741;SDS011;11033;47.490;11.116;2023-11-22T06:22:06;6.72;;;6.03;;
21741;SDS011;11033;47.490;11.116;2023-11-22T06:24:31;7.00;;;5.70;;
21741;SDS011;11033;47.490;11.116;2023-11-22T06:26:58;6.65;;;5.70;;
21741;SDS011;11033;47.490;11.116;2023-11-22T06:29:23;6.20;;;5.47;;
21741;SDS011;11033;47.490;11.116;2023-11-22T06:31:49;6.82;;;5.72;;
21741;SDS011;11033;47.490;11.116;2023-11-22T06:34:14;7.13;;;5.55;;
21741;SDS011;11033;47.490;11.116;2023-11-22T06:36:39;7.00;;;5.65;;
21741;SDS011;11033;47.490;11.116;2023-11-22T06:39:05;8.02;;;7.22;;
21741;SDS011;11033;47.490;11.116;2023-11-22T06:41:31;7.57;;;6.25;;
21741;SDS011;11033;47.490;11.116;2023-11-22T06:43:56;7.45;;;5.82;;
21741;SDS011;11033;47.490;11.116;2023-11-22T06:46:22;3.05;;;2.65;;
21741;SDS011;11033;47.490;11.116;2023-11-22T06:48:48;4.00;;;3.60;;
21741;SDS011;11033;47.490;11.116;2023-11-22T06:51:14;4.10;;;2.80;;
21741;SDS011;11033;47.490;11.116;2023-11-22T06:53:40;2.60;;;2.20;;
21741;SDS011;11033;47.490;11.116;2023-11-22T06:56:06;3.65;;;2.47;;
21741;SDS011;11033;47.490;11.116;2023-11-22T06:58:31;2.85;;;2.55;;
21741;SDS011;11033;47.490;11.116;2023-11-22T07:00:56;3.53;;;2.88;;
21741;SDS011;11033;47.490;11.116;2023-11-22T07:03:22;4.22;;;3.05;;
21741;SDS011;11033;47.490;11.116;2023-11-22T07:05:47;4.65;;;3.17;;
21741;SDS011;11033;47.490;11.116;2023-11-22T07:08:13;5.78;;;4.38;;
21741;SDS011;11033;47.490;11.116;2023-11-22T07:10:41;4.03;;;3.55;;
21741;SDS011;11033;47.490;11.116;2023-11-22T07:13:06;3.55;;;3.10;;
21741;SDS011;11033;47.490;11.116;2023-11-22T07:15:32;5.88;;;3.63;;
21741;SDS011;11033;47.490;11.116;2023-11-22T07:17:57;2.85;;;2.60;;
21741;SDS011;11033;47.490;11.116;2023-11-22T07:20:23;3.50;;;3.15;;
21741;SDS011;11033;47.490;11.116;2023-11-22T07:22:50;3.55;;;3.25;;
21741;SDS011;11033;47.490;11.116;2023-11-22T07:25:20;5.05;;;3.67;;
21741;SDS011;11033;47.490;11.116;2023-11-22T07:27:49;4.13;;;3.73;;
21741;SDS011;11033;47.490;11.116;2023-11-22T07:30:16;5.75;;;4.90;;
21741;SDS011;11033;47.490;11.116;2023-11-22T07:32:44;5.28;;;4.78;;
21741;SDS011;11033;47.490;11.116;2023-11-22T07:35:09;7.22;;;5.40;;
21741;SDS011;11033;47.490;11.116;2023-11-22T07:37:35;7.00;;;5.35;;
21741;SDS011;11033;47.490;11.116;2023-11-22T07:40:09;6.15;;;5.45;;
21741;SDS011;11033;47.490;11.116;2023-11-22T07:42:37;5.70;;;5.10;;
21741;SDS011;11033;47.490;11.116;2023-11-22T07:45:03;4.40;;;4.00;;
21741;SDS011;11033;47.490;11.116;2023-11-22T07:47:29;4.60;;;3.72;;
21741;SDS011;11033;47.490;11.116;2023-11-22T07:49:54;6.05;;;4.97;;
21741;SDS011;11033;47.490;11.116;2023-11-22T07:52:25;5.57;;;4.30;;
21741;SDS011;11033;47.490;11.116;2023-11-22T07:54:57;6.63;;;5.18;;
21741;SDS011;11033;47.490;11.116;2023-11-22T07:57:22;5.85;;;4.95;;
21741;SDS011;11033;47.490;11.116;2023-11-22T07:59:48;13.27;;;5.18;;
21741;SDS011;11033;47.490;11.116;2023-11-22T08:02:14;8.20;;;5.25;;
21741;SDS011;11033;47.490;11.116;2023-11-22T08:04:42;11.80;;;5.40;;
21741;SDS011;11033;47.490;11.116;2023-11-22T08:07:09;10.48;;;6.47;;
21741;SDS011;11033;47.490;11.116;2023-11-22T08:09:36;9.05;;;6.00;;
21741;SDS011;11033;47.490;11.116;2023-11-22T08:12:01;6.22;;;5.50;;
21741;SDS011;11033;47.490;11.116;2023-11-22T08:14:28;7.88;;;4.68;;
21741;SDS011;11033;47.490;11.116;2023-11-22T08:16:53;5.55;;;4.93;;
21741;SDS011;11033;47.490;11.116;2023-11-22T08:19:19;4.82;;;4.13;;
21741;SDS011;11033;47.490;11.116;2023-11-22T08:21:45;4.40;;;3.65;;
21741;SDS011;11033;47.490;11.116;2023-11-22T08:24:10;4.13;;;3.58;;
21741;SDS011;11033;47.490;11.116;2023-11-22T08:26:37;4.43;;;3.75;;
21741;SDS011;11033;47.490;11.116;2023-11-22T08:29:03;4.95;;;4.45;;
21741;SDS011;11033;47.490;11.116;2023-11-22T08:31:29;5.75;;;3.50;;
21741;SDS011;11033;47.490;11.116;2023-11-22T08:33:55;4.40;;;4.00;;
21741;SDS011;11033;47.490;11.116;2023-11-22T08:36:21;7.55;;;4.43;;
21741;SDS011;11033;47.490;11.116;2023-11-22T08:38:47;4.45;;;3.78;;
21741;SDS011;11033;47.490;11.116;2023-11-22T08:41:12;5.07;;;4.57;;
21741;SDS011;11033;47.490;11.116;2023-11-22T08:43:38;4.65;;;4.15;;
21741;SDS011;11033;47.490;11.116;2023-11-22T08:46:04;4.38;;;3.97;;
21741;SDS011;11033;47.490;11.116;2023-11-22T08:48:30;5.53;;;4.93;;
21741;SDS011;11033;47.490;11.116;2023-11-22T08:50:55;4.55;;;4.03;;
21741;SDS011;11033;47.490;11.116;2023-11-22T08:53:22;4.10;;;3.70;;
21741;SDS011;11033;47.490;11.116;2023-11-22T08:55:47;7.57;;;5.43;;
21741;SDS011;11033;47.490;11.116;2023-11-22T08:58:13;4.70;;;4.20;;
21741;SDS011;11033;47.490;11.116;2023-11-22T09:00:39;5.45;;;4.70;;
21741;SDS011;11033;47.490;11.116;2023-11-22T09:03:06;5.70;;;5.10;;
21741;SDS011;11033;47.490;11.116;2023-11-22T09:05:32;5.72;;;4.50;;
21741;SDS011;11033;47.490;11.116;2023-11-22T09:07:57;5.85;;;4.82;;
21741;SDS011;11033;47.490;11.116;2023-11-22T09:10:24;5.82;;;5.22;;
21741;SDS011;11033;47.490;11.116;2023-11-22T09:12:49;3.92;;;3.33;;
21741;SDS011;11033;47.490;11.116;2023-11-22T09:15:16;4.35;;;3.50;;
21741;SDS011;11033;47.490;11.116;2023-11-22T09:17:44;4.82;;;3.10;;
21741;SDS011;11033;47.490;11.116;2023-11-22T09:20:11;4.45;;;4.05;;
21741;SDS011;11033;47.490;11.116;2023-11-22T09:22:47;5.90;;;3.38;;
21741;SDS011;11033;47.490;11.116;2023-11-22T09:25:16;4.32;;;3.70;;
21741;SDS011;11033;47.490;11.116;2023-11-22T09:27:44;4.47;;;4.07;;
21741;SDS011;11033;47.490;11.116;2023-11-22T09:30:14;5.13;;;4.63;;
21741;SDS011;11033;47.490;11.116;2023-11-22T09:32:48;4.75;;;4.35;;
21741;SDS011;11033;47.490;11.116;2023-11-22T09:35:14;5.47;;;4.20;;
21741;SDS011;11033;47.490;11.116;2023-11-22T09:37:40;5.15;;;4.28;;
21741;SDS011;11033;47.490;11.116;2023-11-22T09:40:09;5.20;;;3.70;;
21741;SDS011;11033;47.490;11.116;2023-11-22T09:42:36;4.88;;;4.38;;
21741;SDS011;11033;47.490;11.116;2023-11-22T09:45:01;5.53;;;3.97;;
21741;SDS011;11033;47.490;11.116;2023-11-22T09:47:28;4.15;;;3.80;;
21741;SDS011;11033;47.490;11.116;2023-11-22T09:49:57;4.97;;;4.47;;
21741;SDS011;11033;47.490;11.116;2023-11-22T09:52:25;4.50;;;4.10;;
21741;SDS011;11033;47.490;11.116;2023-11-22T09:54:53;27.15;;;4.85;;
21741;SDS011;11033;47.490;11.116;2023-11-22T09:57:20;17.42;;;4.82;;
21741;SDS011;11033;47.490;11.116;2023-11-22T09:59:49;8.35;;;4.57;;
21741;SDS011;11033;47.490;11.116;2023-11-22T10:02:17;68.13;;;9.65;;
21741;SDS011;11033;47.490;11.116;2023-11-22T10:04:43;20.95;;;5.43;;
21741;SDS011;11033;47.490;11.116;2023-11-22T10:07:08;8.45;;;5.35;;
21741;SDS011;11033;47.490;11.116;2023-11-22T10:09:35;8.50;;;6.38;;
21741;SDS011;11033;47.490;11.116;2023-11-22T10:12:03;7.47;;;5.25;;
21741;SDS011;11033;47.490;11.116;2023-11-22T10:14:30;7.25;;;5.88;;
21741;SDS011;11033;47.490;11.116;2023-11-22T10:16:59;7.47;;;6.70;;
21741;SDS011;11033;47.490;11.116;2023-11-22T10:19:26;5.73;;;5.23;;
21741;SDS011;11033;47.490;11.116;2023-11-22T10:24:46;5.78;;;5.00;;
21741;SDS011;11033;47.490;11.116;2023-11-22T10:27:12;5.40;;;4.90;;
21741;SDS011;11033;47.490;11.116;2023-11-22T10:29:37;5.47;;;4.97;;
21741;SDS011;11033;47.490;11.116;2023-11-22T10:32:02;5.53;;;4.88;;
21741;SDS011;11033;47.490;11.116;2023-11-22T10:34:28;6.03;;;5.43;;
21741;SDS011;11033;47.490;11.116;2023-11-22T10:36:55;5.63;;;5.13;;
21741;SDS011;11033;47.490;11.116;2023-11-22T10:39:21;5.43;;;4.93;;
21741;SDS011;11033;47.490;11.116;2023-11-22T10:41:47;5.78;;;4.55;;
21741;SDS011;11033;47.490;11.116;2023-11-22T10:44:12;5.65;;;5.15;;
21741;SDS011;11033;47.490;11.116;2023-11-22T10:46:40;6.43;;;5.82;;
21741;SDS011;11033;47.490;11.116;2023-11-22T10:49:06;6.43;;;5.82;;
21741;SDS011;11033;47.490;11.116;2023-11-22T10:51:32;5.88;;;5.38;;
21741;SDS011;11033;47.490;11.116;2023-11-22T10:53:59;8.38;;;6.80;;
21741;SDS011;11033;47.490;11.116;2023-11-22T10:56:29;6.50;;;5.03;;
21741;SDS011;11033;47.490;11.116;2023-11-22T10:59:02;6.07;;;4.82;;
21741;SDS011;11033;47.490;11.116;2023-11-22T11:01:34;5.57;;;5.07;;
21741;SDS011;11033;47.490;11.116;2023-11-22T11:04:02;5.20;;;4.55;;
21741;SDS011;11033;47.490;11.116;2023-11-22T11:06:32;6.10;;;5.50;;
21741;SDS011;11033;47.490;11.116;2023-11-22T11:09:00;9.35;;;7.97;;
21741;SDS011;11033;47.490;11.116;2023-11-22T11:11:27;11.43;;;9.65;;
21741;SDS011;11033;47.490;11.116;2023-11-22T11:13:54;5.70;;;5.20;;
21741;SDS011;11033;47.490;11.116;2023-11-22T11:16:20;6.63;;;6.03;;
21741;SDS011;11033;47.490;11.116;2023-11-22T11:18:47;6.10;;;5.50;;
21741;SDS011;11033;47.490;11.116;2023-11-22T11:21:13;4.70;;;4.30;;
21741;SDS011;11033;47.490;11.116;2023-11-22T11:23:40;5.15;;;4.65;;
21741;SDS011;11033;47.490;11.116;2023-11-22T11:26:14;5.53;;;5.03;;
21741;SDS011;11033;47.490;11.116;2023-11-22T11:28:45;6.50;;;5.70;;
21741;SDS011;11033;47.490;11.116;2023-11-22T11:31:12;5.63;;;5.13;;
21741;SDS011;11033;47.490;11.116;2023-11-22T11:36:23;5.63;;;5.13;;
21741;SDS011;11033;47.490;11.116;2023-11-22T11:38:51;5.65;;;4.95;;
21741;SDS011;11033;47.490;11.116;2023-11-22T11:41:22;5.38;;;4.88;;
21741;SDS011;11033;47.490;11.116;2023-11-22T11:43:51;5.90;;;5.30;;
21741;SDS011;11033;47.490;11.116;2023-11-22T11:46:17;5.68;;;5.18;;
21741;SDS011;11033;47.490;11.116;2023-11-22T11:48:52;5.13;;;4.72;;
21741;SDS011;11033;47.490;11.116;2023-11-22T11:51:19;5.50;;;5.00;;
21741;SDS011;11033;47.490;11.116;2023-11-22T11:53:46;5.70;;;5.30;;
21741;SDS011;11033;47.490;11.116;2023-11-22T11:56:12;5.63;;;5.13;;
21741;SDS011;11033;47.490;11.116;2023-11-22T11:58:39;5.35;;;4.95;;
21741;SDS011;11033;47.490;11.116;2023-11-22T12:01:06;7.18;;;6.57;;
21741;SDS011;11033;47.490;11.116;2023-11-22T12:03:32;11.48;;;10.57;;
21741;SDS011;11033;47.490;11.116;2023-11-22T12:05:58;7.78;;;7.18;;
21741;SDS011;11033;47.490;11.116;2023-11-22T12:08:23;5.32;;;4.93;;
21741;SDS011;11033;47.490;11.116;2023-11-22T12:10:49;4.70;;;4.30;;
21741;SDS011;11033;47.490;11.116;2023-11-22T12:13:18;4.30;;;4.00;;
21741;SDS011;11033;47.490;11.116;2023-11-22T12:18:11;4.30;;;3.90;;
21741;SDS011;11033;47.490;11.116;2023-11-22T12:20:37;5.55;;;4.10;;
21741;SDS011;11033;47.490;11.116;2023-11-22T12:23:03;4.28;;;3.97;;
21741;SDS011;11033;47.490;11.116;2023-11-22T12:25:29;4.45;;;4.05;;
21741;SDS011;11033;47.490;11.116;2023-11-22T12:27:55;3.67;;;3.38;;
21741;SDS011;11033;47.490;11.116;2023-11-22T12:30:55;4.45;;;3.55;;
21741;SDS011;11033;47.490;11.116;2023-11-22T12:33:13;5.18;;;4.38;;
21741;SDS011;11033;47.490;11.116;2023-11-22T12:35:42;4.90;;;4.50;;
21741;SDS011;11033;47.490;11.116;2023-11-22T12:38:09;5.70;;;5.20;;
21741;SDS011;11033;47.490;11.116;2023-11-22T12:40:34;6.22;;;5.68;;
21741;SDS011;11033;47.490;11.116;2023-11-22T12:43:01;6.35;;;5.15;;
21741;SDS011;11033;47.490;11.116;2023-11-22T12:45:28;7.00;;;6.30;;
21741;SDS011;11033;47.490;11.116;2023-11-22T12:47:55;6.85;;;6.03;;
21741;SDS011;11033;47.490;11.116;2023-11-22T12:50:36;6.47;;;5.88;;
21741;SDS011;11033;47.490;11.116;2023-11-22T12:53:13;8.18;;;6.07;;
21741;SDS011;11033;47.490;11.116;2023-11-22T12:55:44;6.32;;;5.72;;
21741;SDS011;11033;47.490;11.116;2023-11-22T12:58:11;5.15;;;4.70;;
21741;SDS011;11033;47.490;11.116;2023-11-22T13:00:37;6.38;;;5.38;;
21741;SDS011;11033;47.490;11.116;2023-11-22T13:03:04;6.03;;;5.43;;
21741;SDS011;11033;47.490;11.116;2023-11-22T13:05:31;6.40;;;5.70;;
21741;SDS011;11033;47.490;11.116;2023-11-22T13:07:56;6.25;;;5.65;;
21741;SDS011;11033;47.490;11.116;2023-11-22T13:10:21;6.30;;;5.70;;
21741;SDS011;11033;47.490;11.116;2023-11-22T13:12:51;6.82;;;6.18;;
21741;SDS011;11033;47.490;11.116;2023-11-22T13:15:17;6.45;;;5.68;;
21741;SDS011;11033;47.490;11.116;2023-11-22T13:17:42;8.52;;;6.78;;
21741;SDS011;11033;47.490;11.116;2023-11-22T13:20:08;7.30;;;6.60;;
21741;SDS011;11033;47.490;11.116;2023-11-22T13:22:40;6.90;;;6.20;;
21741;SDS011;11033;47.490;11.116;2023-11-22T13:25:09;7.85;;;6.60;;
21741;SDS011;11033;47.490;11.116;2023-11-22T13:27:48;6.95;;;6.32;;
21741;SDS011;11033;47.490;11.116;2023-11-22T13:30:16;7.00;;;6.40;;
21741;SDS011;11033;47.490;11.116;2023-11-22T13:32:50;6.88;;;6.18;;
21741;SDS011;11033;47.490;11.116;2023-11-22T13:35:15;7.10;;;6.40;;
21741;SDS011;11033;47.490;11.116;2023-11-22T13:37:42;6.88;;;6.25;;
21741;SDS011;11033;47.490;11.116;2023-11-22T13:40:13;8.20;;;7.30;;
21741;SDS011;11033;47.490;11.116;2023-11-22T13:42:40;8.90;;;7.95;;
21741;SDS011;11033;47.490;11.116;2023-11-22T13:45:07;8.32;;;7.53;;
21741;SDS011;11033;47.490;11.116;2023-11-22T13:47:33;9.45;;;8.30;;
21741;SDS011;11033;47.490;11.116;2023-11-22T13:49:58;8.80;;;7.90;;
21741;SDS011;11033;47.490;11.116;2023-11-22T13:52:24;13.82;;;10.15;;
21741;SDS011;11033;47.490;11.116;2023-11-22T13:54:49;12.68;;;10.32;;
21741;SDS011;11033;47.490;11.116;2023-11-22T13:57:16;14.05;;;11.00;;
21741;SDS011;11033;47.490;11.116;2023-11-22T13:59:42;15.95;;;11.25;;
21741;SDS011;11033;47.490;11.116;2023-11-22T14:02:07;17.00;;;11.40;;
21741;SDS011;11033;47.490;11.116;2023-11-22T14:04:32;17.85;;;11.15;;
21741;SDS011;11033;47.490;11.116;2023-11-22T14:06:59;14.13;;;11.30;;
21741;SDS011;11033;47.490;11.116;2023-11-22T14:09:25;14.48;;;10.50;;
21741;SDS011;11033;47.490;11.116;2023-11-22T14:11:50;13.60;;;11.10;;
21741;SDS011;11033;47.490;11.116;2023-11-22T14:14:15;13.63;;;11.10;;
21741;SDS011;11033;47.490;11.116;2023-11-22T14:16:41;11.73;;;10.40;;
21741;SDS011;11033;47.490;11.116;2023-11-22T14:19:10;39.38;;;11.55;;
21741;SDS011;11033;47.490;11.116;2023-11-22T14:21:36;19.23;;;10.55;;
21741;SDS011;11033;47.490;11.116;2023-11-22T14:24:01;10.65;;;9.55;;
21741;SDS011;11033;47.490;11.116;2023-11-22T14:26:26;10.82;;;9.60;;
21741;SDS011;11033;47.490;11.116;2023-11-22T14:28:52;11.90;;;9.98;;
21741;SDS011;11033;47.490;11.116;2023-11-22T14:31:17;11.52;;;9.75;;
21741;SDS011;11033;47.490;11.116;2023-11-22T14:33:42;13.38;;;10.07;;
21741;SDS011;11033;47.490;11.116;2023-11-22T14:36:08;15.50;;;9.73;;